sensor_id;sensor_type;location;lat;lon;timestamp;P1;durP1;ratioP1;P2;durP2;ratioP2
69625;SDS011;56847;51.984;5.088;2023-03-19T00:00:43;8.20;;;4.63;;
69625;SDS011;56847;51.984;5.088;2023-03-19T00:03:10;5.70;;;4.70;;
69625;SDS011;56847;51.984;5.088;2023-03-19T00:05:37;5.22;;;4.72;;
69625;SDS011;56847;51.984;5.088;2023-03-19T00:08:04;5.20;;;4.68;;
69625;SDS011;56847;51.984;5.088;2023-03-19T00:10:31;5.30;;;4.17;;
69625;SDS011;56847;51.984;5.088;2023-03-19T00:12:58;5.70;;;5.10;;
69625;SDS011;56847;51.984;5.088;2023-03-19T00:15:25;5.50;;;4.30;;
69625;SDS011;56847;51.984;5.088;2023-03-19T00:17:52;6.13;;;4.80;;
69625;SDS011;56847;51.984;5.088;2023-03-19T00:20:19;6.03;;;4.70;;
69625;SDS011;56847;51.984;5.088;2023-03-19T00:22:47;6.37;;;4.33;;
69625;SDS011;56847;51.984;5.088;2023-03-19T00:25:17;7.85;;;4.80;;
69625;SDS011;56847;51.984;5.088;2023-03-19T00:27:44;6.53;;;5.15;;
69625;SDS011;56847;51.984;5.088;2023-03-19T00:30:12;6.22;;;5.22;;
69625;SDS011;56847;51.984;5.088;2023-03-19T00:32:40;6.32;;;5.25;;
69625;SDS011;56847;51.984;5.088;2023-03-19T00:35:07;6.50;;;5.07;;
69625;SDS011;56847;51.984;5.088;2023-03-19T00:37:34;6.57;;;4.35;;
69625;SDS011;56847;51.984;5.088;2023-03-19T00:40:02;6.53;;;5.70;;
69625;SDS011;56847;51.984;5.088;2023-03-19T00:42:32;7.20;;;4.97;;
69625;SDS011;56847;51.984;5.088;2023-03-19T00:44:59;6.82;;;5.30;;
69625;SDS011;56847;51.984;5.088;2023-03-19T00:47:29;8.60;;;5.37;;
69625;SDS011;56847;51.984;5.088;2023-03-19T00:49:56;6.03;;;5.43;;
69625;SDS011;56847;51.984;5.088;2023-03-19T00:52:23;7.70;;;5.50;;
69625;SDS011;56847;51.984;5.088;2023-03-19T00:54:51;7.65;;;5.80;;
69625;SDS011;56847;51.984;5.088;2023-03-19T00:57:18;7.20;;;5.32;;
69625;SDS011;56847;51.984;5.088;2023-03-19T00:59:45;9.00;;;4.47;;
69625;SDS011;56847;51.984;5.088;2023-03-19T01:02:12;6.20;;;5.10;;
69625;SDS011;56847;51.984;5.088;2023-03-19T01:04:39;8.35;;;6.20;;
69625;SDS011;56847;51.984;5.088;2023-03-19T01:07:06;10.45;;;5.72;;
69625;SDS011;56847;51.984;5.088;2023-03-19T01:09:33;12.10;;;6.40;;
69625;SDS011;56847;51.984;5.088;2023-03-19T01:12:01;11.60;;;6.23;;
69625;SDS011;56847;51.984;5.088;2023-03-19T01:14:30;7.32;;;5.60;;
69625;SDS011;56847;51.984;5.088;2023-03-19T01:16:58;8.55;;;6.85;;
69625;SDS011;56847;51.984;5.088;2023-03-19T01:19:25;7.75;;;6.18;;
69625;SDS011;56847;51.984;5.088;2023-03-19T01:21:53;6.97;;;6.25;;
69625;SDS011;56847;51.984;5.088;2023-03-19T01:24:21;8.83;;;6.03;;
69625;SDS011;56847;51.984;5.088;2023-03-19T01:26:52;8.82;;;6.28;;
69625;SDS011;56847;51.984;5.088;2023-03-19T01:29:30;10.18;;;7.15;;
69625;SDS011;56847;51.984;5.088;2023-03-19T01:32:03;9.25;;;7.15;;
69625;SDS011;56847;51.984;5.088;2023-03-19T01:34:51;8.32;;;6.43;;
69625;SDS011;56847;51.984;5.088;2023-03-19T01:37:19;8.40;;;6.27;;
69625;SDS011;56847;51.984;5.088;2023-03-19T01:39:47;10.40;;;6.97;;
69625;SDS011;56847;51.984;5.088;2023-03-19T01:42:14;8.68;;;6.40;;
69625;SDS011;56847;51.984;5.088;2023-03-19T01:44:54;8.65;;;6.45;;
69625;SDS011;56847;51.984;5.088;2023-03-19T01:47:36;9.02;;;6.85;;
69625;SDS011;56847;51.984;5.088;2023-03-19T01:52:55;8.68;;;6.85;;
69625;SDS011;56847;51.984;5.088;2023-03-19T01:55:48;8.30;;;6.82;;
69625;SDS011;56847;51.984;5.088;2023-03-19T01:58:34;10.48;;;6.35;;
69625;SDS011;56847;51.984;5.088;2023-03-19T02:01:10;9.55;;;7.50;;
69625;SDS011;56847;51.984;5.088;2023-03-19T02:03:41;12.20;;;7.07;;
69625;SDS011;56847;51.984;5.088;2023-03-19T02:06:14;10.77;;;7.22;;
69625;SDS011;56847;51.984;5.088;2023-03-19T02:08:42;10.15;;;8.00;;
69625;SDS011;56847;51.984;5.088;2023-03-19T02:11:09;9.25;;;7.10;;
69625;SDS011;56847;51.984;5.088;2023-03-19T02:13:36;10.82;;;8.00;;
69625;SDS011;56847;51.984;5.088;2023-03-19T02:16:04;9.73;;;7.90;;
69625;SDS011;56847;51.984;5.088;2023-03-19T02:18:31;10.70;;;8.07;;
69625;SDS011;56847;51.984;5.088;2023-03-19T02:21:02;12.52;;;7.65;;
69625;SDS011;56847;51.984;5.088;2023-03-19T02:24:25;16.05;;;8.02;;
69625;SDS011;56847;51.984;5.088;2023-03-19T02:26:57;11.05;;;8.18;;
69625;SDS011;56847;51.984;5.088;2023-03-19T02:29:24;8.23;;;7.20;;
69625;SDS011;56847;51.984;5.088;2023-03-19T02:31:52;12.45;;;8.15;;
69625;SDS011;56847;51.984;5.088;2023-03-19T02:36:59;10.63;;;7.88;;
69625;SDS011;56847;51.984;5.088;2023-03-19T02:39:43;11.80;;;8.57;;
69625;SDS011;56847;51.984;5.088;2023-03-19T02:42:17;12.27;;;7.60;;
69625;SDS011;56847;51.984;5.088;2023-03-19T02:44:46;11.23;;;8.93;;
69625;SDS011;56847;51.984;5.088;2023-03-19T02:47:13;15.95;;;8.57;;
69625;SDS011;56847;51.984;5.088;2023-03-19T02:49:40;9.95;;;8.77;;
69625;SDS011;56847;51.984;5.088;2023-03-19T02:52:07;12.57;;;10.57;;
69625;SDS011;56847;51.984;5.088;2023-03-19T02:54:35;11.77;;;8.70;;
69625;SDS011;56847;51.984;5.088;2023-03-19T02:57:02;9.98;;;8.77;;
69625;SDS011;56847;51.984;5.088;2023-03-19T02:59:29;13.93;;;10.23;;
69625;SDS011;56847;51.984;5.088;2023-03-19T03:01:56;13.70;;;10.32;;
69625;SDS011;56847;51.984;5.088;2023-03-19T03:04:23;12.77;;;10.57;;
69625;SDS011;56847;51.984;5.088;2023-03-19T03:06:51;12.33;;;9.50;;
69625;SDS011;56847;51.984;5.088;2023-03-19T03:09:18;15.05;;;11.00;;
69625;SDS011;56847;51.984;5.088;2023-03-19T03:11:47;13.45;;;11.38;;
69625;SDS011;56847;51.984;5.088;2023-03-19T03:14:14;15.23;;;10.52;;
69625;SDS011;56847;51.984;5.088;2023-03-19T03:16:41;16.27;;;12.15;;
69625;SDS011;56847;51.984;5.088;2023-03-19T03:19:09;15.27;;;10.57;;
69625;SDS011;56847;51.984;5.088;2023-03-19T03:21:36;16.17;;;11.38;;
69625;SDS011;56847;51.984;5.088;2023-03-19T03:24:03;15.65;;;12.68;;
69625;SDS011;56847;51.984;5.088;2023-03-19T03:26:30;16.80;;;10.68;;
69625;SDS011;56847;51.984;5.088;2023-03-19T03:29:02;15.15;;;11.40;;
69625;SDS011;56847;51.984;5.088;2023-03-19T03:31:30;13.20;;;10.83;;
69625;SDS011;56847;51.984;5.088;2023-03-19T03:33:57;15.63;;;12.25;;
69625;SDS011;56847;51.984;5.088;2023-03-19T03:36:24;15.98;;;12.57;;
69625;SDS011;56847;51.984;5.088;2023-03-19T03:38:53;16.23;;;11.90;;
69625;SDS011;56847;51.984;5.088;2023-03-19T03:41:20;16.88;;;12.77;;
69625;SDS011;56847;51.984;5.088;2023-03-19T03:43:47;17.97;;;12.43;;
69625;SDS011;56847;51.984;5.088;2023-03-19T03:46:15;16.70;;;13.05;;
69625;SDS011;56847;51.984;5.088;2023-03-19T03:48:43;19.33;;;13.50;;
69625;SDS011;56847;51.984;5.088;2023-03-19T03:51:10;16.67;;;12.38;;
69625;SDS011;56847;51.984;5.088;2023-03-19T03:53:37;19.60;;;12.80;;
69625;SDS011;56847;51.984;5.088;2023-03-19T03:56:04;18.43;;;13.17;;
69625;SDS011;56847;51.984;5.088;2023-03-19T03:58:32;17.60;;;12.35;;
69625;SDS011;56847;51.984;5.088;2023-03-19T04:00:59;22.35;;;14.20;;
69625;SDS011;56847;51.984;5.088;2023-03-19T04:03:26;23.35;;;13.80;;
69625;SDS011;56847;51.984;5.088;2023-03-19T04:05:54;22.58;;;14.82;;
69625;SDS011;56847;51.984;5.088;2023-03-19T04:08:21;19.63;;;13.73;;
69625;SDS011;56847;51.984;5.088;2023-03-19T04:10:48;16.92;;;11.90;;
69625;SDS011;56847;51.984;5.088;2023-03-19T04:13:16;20.17;;;13.90;;
69625;SDS011;56847;51.984;5.088;2023-03-19T04:15:43;19.10;;;13.20;;
69625;SDS011;56847;51.984;5.088;2023-03-19T04:18:12;22.17;;;14.77;;
69625;SDS011;56847;51.984;5.088;2023-03-19T04:20:39;19.30;;;14.33;;
69625;SDS011;56847;51.984;5.088;2023-03-19T04:23:07;21.00;;;14.00;;
69625;SDS011;56847;51.984;5.088;2023-03-19T04:25:34;18.73;;;13.32;;
69625;SDS011;56847;51.984;5.088;2023-03-19T04:28:07;19.25;;;13.57;;
69625;SDS011;56847;51.984;5.088;2023-03-19T04:30:34;17.65;;;13.48;;
69625;SDS011;56847;51.984;5.088;2023-03-19T04:33:03;19.37;;;12.23;;
69625;SDS011;56847;51.984;5.088;2023-03-19T04:35:30;18.73;;;11.05;;
69625;SDS011;56847;51.984;5.088;2023-03-19T04:37:58;18.55;;;12.90;;
69625;SDS011;56847;51.984;5.088;2023-03-19T04:40:25;20.10;;;13.30;;
69625;SDS011;56847;51.984;5.088;2023-03-19T04:42:52;18.75;;;14.45;;
69625;SDS011;56847;51.984;5.088;2023-03-19T04:45:31;19.63;;;13.57;;
69625;SDS011;56847;51.984;5.088;2023-03-19T04:47:59;19.17;;;12.82;;
69625;SDS011;56847;51.984;5.088;2023-03-19T04:50:28;19.63;;;13.90;;
69625;SDS011;56847;51.984;5.088;2023-03-19T04:52:56;18.05;;;13.25;;
69625;SDS011;56847;51.984;5.088;2023-03-19T04:55:23;18.48;;;14.63;;
69625;SDS011;56847;51.984;5.088;2023-03-19T04:58:02;20.17;;;13.97;;
69625;SDS011;56847;51.984;5.088;2023-03-19T05:00:32;18.23;;;14.50;;
69625;SDS011;56847;51.984;5.088;2023-03-19T05:03:00;22.83;;;15.73;;
69625;SDS011;56847;51.984;5.088;2023-03-19T05:05:30;22.67;;;14.50;;
69625;SDS011;56847;51.984;5.088;2023-03-19T05:07:57;24.42;;;15.60;;
69625;SDS011;56847;51.984;5.088;2023-03-19T05:10:24;22.80;;;14.77;;
69625;SDS011;56847;51.984;5.088;2023-03-19T05:12:52;21.00;;;15.32;;
69625;SDS011;56847;51.984;5.088;2023-03-19T05:15:19;22.08;;;15.57;;
69625;SDS011;56847;51.984;5.088;2023-03-19T05:17:57;25.17;;;14.88;;
69625;SDS011;56847;51.984;5.088;2023-03-19T05:20:29;20.20;;;15.45;;
69625;SDS011;56847;51.984;5.088;2023-03-19T05:23:03;18.97;;;14.13;;
69625;SDS011;56847;51.984;5.088;2023-03-19T05:25:38;24.85;;;13.93;;
69625;SDS011;56847;51.984;5.088;2023-03-19T05:28:09;30.77;;;15.65;;
69625;SDS011;56847;51.984;5.088;2023-03-19T05:30:36;22.90;;;14.48;;
69625;SDS011;56847;51.984;5.088;2023-03-19T05:33:32;25.10;;;15.93;;
69625;SDS011;56847;51.984;5.088;2023-03-19T05:35:59;21.83;;;16.27;;
69625;SDS011;56847;51.984;5.088;2023-03-19T05:38:42;28.08;;;15.63;;
69625;SDS011;56847;51.984;5.088;2023-03-19T05:41:15;23.58;;;17.58;;
69625;SDS011;56847;51.984;5.088;2023-03-19T05:43:53;26.65;;;16.60;;
69625;SDS011;56847;51.984;5.088;2023-03-19T05:46:50;24.92;;;16.25;;
69625;SDS011;56847;51.984;5.088;2023-03-19T05:49:19;21.30;;;15.07;;
69625;SDS011;56847;51.984;5.088;2023-03-19T05:51:47;23.02;;;16.38;;
69625;SDS011;56847;51.984;5.088;2023-03-19T05:54:14;26.75;;;17.90;;
69625;SDS011;56847;51.984;5.088;2023-03-19T05:57:07;25.63;;;17.23;;
69625;SDS011;56847;51.984;5.088;2023-03-19T05:59:50;25.13;;;16.23;;
69625;SDS011;56847;51.984;5.088;2023-03-19T06:02:33;24.43;;;18.20;;
69625;SDS011;56847;51.984;5.088;2023-03-19T06:05:21;30.83;;;17.70;;
69625;SDS011;56847;51.984;5.088;2023-03-19T06:07:51;27.45;;;17.80;;
69625;SDS011;56847;51.984;5.088;2023-03-19T06:10:36;30.20;;;17.27;;
69625;SDS011;56847;51.984;5.088;2023-03-19T06:13:08;28.15;;;19.02;;
69625;SDS011;56847;51.984;5.088;2023-03-19T06:15:55;28.47;;;17.73;;
69625;SDS011;56847;51.984;5.088;2023-03-19T06:18:30;28.35;;;18.13;;
69625;SDS011;56847;51.984;5.088;2023-03-19T06:20:58;29.50;;;19.08;;
69625;SDS011;56847;51.984;5.088;2023-03-19T06:23:25;33.80;;;19.30;;
69625;SDS011;56847;51.984;5.088;2023-03-19T06:25:52;35.25;;;19.05;;
69625;SDS011;56847;51.984;5.088;2023-03-19T06:28:21;33.50;;;19.33;;
69625;SDS011;56847;51.984;5.088;2023-03-19T06:30:48;25.63;;;16.77;;
69625;SDS011;56847;51.984;5.088;2023-03-19T06:33:47;30.73;;;18.67;;
69625;SDS011;56847;51.984;5.088;2023-03-19T06:36:16;32.83;;;19.35;;
69625;SDS011;56847;51.984;5.088;2023-03-19T06:38:43;31.70;;;18.63;;
69625;SDS011;56847;51.984;5.088;2023-03-19T06:41:11;31.57;;;19.17;;
69625;SDS011;56847;51.984;5.088;2023-03-19T06:43:38;39.20;;;19.85;;
69625;SDS011;56847;51.984;5.088;2023-03-19T06:46:07;27.10;;;15.15;;
69625;SDS011;56847;51.984;5.088;2023-03-19T06:48:37;27.35;;;16.45;;
69625;SDS011;56847;51.984;5.088;2023-03-19T06:51:04;40.72;;;22.30;;
69625;SDS011;56847;51.984;5.088;2023-03-19T06:53:32;32.17;;;18.60;;
69625;SDS011;56847;51.984;5.088;2023-03-19T06:55:59;35.75;;;21.08;;
69625;SDS011;56847;51.984;5.088;2023-03-19T06:58:26;39.50;;;22.85;;
69625;SDS011;56847;51.984;5.088;2023-03-19T07:00:53;44.22;;;25.02;;
69625;SDS011;56847;51.984;5.088;2023-03-19T07:03:21;44.65;;;25.40;;
69625;SDS011;56847;51.984;5.088;2023-03-19T07:05:51;41.83;;;22.67;;
69625;SDS011;56847;51.984;5.088;2023-03-19T07:08:18;43.38;;;23.20;;
69625;SDS011;56847;51.984;5.088;2023-03-19T07:10:46;43.03;;;22.92;;
69625;SDS011;56847;51.984;5.088;2023-03-19T07:13:13;43.30;;;21.08;;
69625;SDS011;56847;51.984;5.088;2023-03-19T07:15:40;38.10;;;21.38;;
69625;SDS011;56847;51.984;5.088;2023-03-19T07:18:07;38.90;;;21.90;;
69625;SDS011;56847;51.984;5.088;2023-03-19T07:20:34;43.20;;;22.58;;
69625;SDS011;56847;51.984;5.088;2023-03-19T07:23:02;38.53;;;22.98;;
69625;SDS011;56847;51.984;5.088;2023-03-19T07:25:28;38.45;;;23.45;;
69625;SDS011;56847;51.984;5.088;2023-03-19T07:27:55;39.92;;;23.00;;
69625;SDS011;56847;51.984;5.088;2023-03-19T07:30:22;35.23;;;21.87;;
69625;SDS011;56847;51.984;5.088;2023-03-19T07:32:49;33.78;;;20.02;;
69625;SDS011;56847;51.984;5.088;2023-03-19T07:35:16;40.67;;;23.80;;
69625;SDS011;56847;51.984;5.088;2023-03-19T07:37:47;36.97;;;23.10;;
69625;SDS011;56847;51.984;5.088;2023-03-19T07:40:14;41.22;;;25.15;;
69625;SDS011;56847;51.984;5.088;2023-03-19T07:42:41;38.07;;;22.90;;
69625;SDS011;56847;51.984;5.088;2023-03-19T07:45:11;35.92;;;22.73;;
69625;SDS011;56847;51.984;5.088;2023-03-19T07:47:38;42.50;;;25.02;;
69625;SDS011;56847;51.984;5.088;2023-03-19T07:50:05;31.45;;;20.27;;
69625;SDS011;56847;51.984;5.088;2023-03-19T07:52:33;42.38;;;25.73;;
69625;SDS011;56847;51.984;5.088;2023-03-19T07:55:00;42.70;;;25.37;;
69625;SDS011;56847;51.984;5.088;2023-03-19T07:57:27;43.42;;;24.65;;
69625;SDS011;56847;51.984;5.088;2023-03-19T07:59:54;43.38;;;25.63;;
69625;SDS011;56847;51.984;5.088;2023-03-19T08:02:21;44.25;;;25.48;;
69625;SDS011;56847;51.984;5.088;2023-03-19T08:04:50;47.30;;;24.70;;
69625;SDS011;56847;51.984;5.088;2023-03-19T08:07:18;50.27;;;26.87;;
69625;SDS011;56847;51.984;5.088;2023-03-19T08:09:45;32.05;;;16.98;;
69625;SDS011;56847;51.984;5.088;2023-03-19T08:12:12;46.22;;;27.15;;
69625;SDS011;56847;51.984;5.088;2023-03-19T08:14:39;47.53;;;26.88;;
69625;SDS011;56847;51.984;5.088;2023-03-19T08:17:06;54.60;;;28.45;;
69625;SDS011;56847;51.984;5.088;2023-03-19T08:19:33;49.03;;;26.60;;
69625;SDS011;56847;51.984;5.088;2023-03-19T08:22:00;50.50;;;28.30;;
69625;SDS011;56847;51.984;5.088;2023-03-19T08:24:27;54.15;;;28.55;;
69625;SDS011;56847;51.984;5.088;2023-03-19T08:26:54;45.03;;;24.70;;
69625;SDS011;56847;51.984;5.088;2023-03-19T08:29:21;50.33;;;28.80;;
69625;SDS011;56847;51.984;5.088;2023-03-19T08:31:48;51.67;;;27.83;;
69625;SDS011;56847;51.984;5.088;2023-03-19T08:34:15;49.60;;;28.30;;
69625;SDS011;56847;51.984;5.088;2023-03-19T08:36:42;54.28;;;29.67;;
69625;SDS011;56847;51.984;5.088;2023-03-19T08:39:09;43.13;;;24.20;;
69625;SDS011;56847;51.984;5.088;2023-03-19T08:41:36;37.10;;;19.60;;
69625;SDS011;56847;51.984;5.088;2023-03-19T08:44:03;29.67;;;18.27;;
69625;SDS011;56847;51.984;5.088;2023-03-19T08:46:30;28.75;;;16.27;;
69625;SDS011;56847;51.984;5.088;2023-03-19T08:48:57;37.92;;;21.38;;
69625;SDS011;56847;51.984;5.088;2023-03-19T08:51:24;40.25;;;21.63;;
69625;SDS011;56847;51.984;5.088;2023-03-19T08:53:51;34.70;;;20.42;;
69625;SDS011;56847;51.984;5.088;2023-03-19T08:56:18;37.77;;;20.47;;
69625;SDS011;56847;51.984;5.088;2023-03-19T08:58:46;36.47;;;18.85;;
69625;SDS011;56847;51.984;5.088;2023-03-19T09:01:13;37.22;;;21.30;;
69625;SDS011;56847;51.984;5.088;2023-03-19T09:03:41;40.22;;;21.42;;
69625;SDS011;56847;51.984;5.088;2023-03-19T09:06:10;43.53;;;22.85;;
69625;SDS011;56847;51.984;5.088;2023-03-19T09:08:39;35.97;;;20.90;;
69625;SDS011;56847;51.984;5.088;2023-03-19T09:11:07;40.13;;;22.52;;
69625;SDS011;56847;51.984;5.088;2023-03-19T09:13:36;37.63;;;20.00;;
69625;SDS011;56847;51.984;5.088;2023-03-19T09:16:03;37.45;;;21.60;;
69625;SDS011;56847;51.984;5.088;2023-03-19T09:18:30;46.35;;;22.88;;
69625;SDS011;56847;51.984;5.088;2023-03-19T09:20:57;39.00;;;21.47;;
69625;SDS011;56847;51.984;5.088;2023-03-19T09:23:26;41.92;;;22.42;;
69625;SDS011;56847;51.984;5.088;2023-03-19T09:25:53;38.72;;;20.80;;
69625;SDS011;56847;51.984;5.088;2023-03-19T09:28:20;39.75;;;22.17;;
69625;SDS011;56847;51.984;5.088;2023-03-19T09:30:47;44.53;;;23.35;;
69625;SDS011;56847;51.984;5.088;2023-03-19T09:33:16;40.40;;;22.10;;
69625;SDS011;56847;51.984;5.088;2023-03-19T09:35:48;43.30;;;22.65;;
69625;SDS011;56847;51.984;5.088;2023-03-19T09:38:18;43.10;;;24.50;;
69625;SDS011;56847;51.984;5.088;2023-03-19T09:41:09;45.50;;;23.88;;
69625;SDS011;56847;51.984;5.088;2023-03-19T09:44:15;40.05;;;23.65;;
69625;SDS011;56847;51.984;5.088;2023-03-19T09:49:33;46.15;;;22.67;;
69625;SDS011;56847;51.984;5.088;2023-03-19T09:52:09;39.13;;;22.23;;
69625;SDS011;56847;51.984;5.088;2023-03-19T09:54:50;42.38;;;23.15;;
69625;SDS011;56847;51.984;5.088;2023-03-19T09:57:18;41.53;;;23.55;;
69625;SDS011;56847;51.984;5.088;2023-03-19T09:59:45;39.20;;;22.63;;
69625;SDS011;56847;51.984;5.088;2023-03-19T10:07:53;43.03;;;23.05;;
69625;SDS011;56847;51.984;5.088;2023-03-19T10:15:53;43.40;;;21.35;;
69625;SDS011;56847;51.984;5.088;2023-03-19T10:18:25;42.95;;;22.58;;
69625;SDS011;56847;51.984;5.088;2023-03-19T10:24:01;43.60;;;22.50;;
69625;SDS011;56847;51.984;5.088;2023-03-19T10:26:51;38.37;;;21.00;;
69625;SDS011;56847;51.984;5.088;2023-03-19T10:29:26;33.75;;;17.98;;
69625;SDS011;56847;51.984;5.088;2023-03-19T10:31:56;33.13;;;18.67;;
69625;SDS011;56847;51.984;5.088;2023-03-19T10:34:35;28.02;;;16.50;;
69625;SDS011;56847;51.984;5.088;2023-03-19T10:37:05;32.08;;;17.02;;
69625;SDS011;56847;51.984;5.088;2023-03-19T10:39:39;34.67;;;18.00;;
69625;SDS011;56847;51.984;5.088;2023-03-19T10:47:44;35.50;;;18.02;;
69625;SDS011;56847;51.984;5.088;2023-03-19T10:50:15;33.58;;;18.88;;
69625;SDS011;56847;51.984;5.088;2023-03-19T10:52:48;36.27;;;18.60;;
69625;SDS011;56847;51.984;5.088;2023-03-19T10:55:18;34.65;;;18.20;;
69625;SDS011;56847;51.984;5.088;2023-03-19T10:57:50;37.85;;;19.77;;
69625;SDS011;56847;51.984;5.088;2023-03-19T11:00:28;34.72;;;17.70;;
69625;SDS011;56847;51.984;5.088;2023-03-19T11:02:58;38.35;;;18.33;;
69625;SDS011;56847;51.984;5.088;2023-03-19T11:05:31;30.07;;;16.10;;
69625;SDS011;56847;51.984;5.088;2023-03-19T11:08:01;40.55;;;16.65;;
69625;SDS011;56847;51.984;5.088;2023-03-19T11:10:30;42.90;;;19.40;;
69625;SDS011;56847;51.984;5.088;2023-03-19T11:13:13;47.25;;;20.13;;
69625;SDS011;56847;51.984;5.088;2023-03-19T11:15:54;47.75;;;19.55;;
69625;SDS011;56847;51.984;5.088;2023-03-19T11:18:28;56.07;;;20.43;;
69625;SDS011;56847;51.984;5.088;2023-03-19T11:21:01;54.72;;;20.25;;
69625;SDS011;56847;51.984;5.088;2023-03-19T11:23:40;49.08;;;19.13;;
69625;SDS011;56847;51.984;5.088;2023-03-19T11:26:07;52.38;;;19.15;;
69625;SDS011;56847;51.984;5.088;2023-03-19T11:28:35;50.85;;;20.15;;
69625;SDS011;56847;51.984;5.088;2023-03-19T11:31:06;49.07;;;20.00;;
69625;SDS011;56847;51.984;5.088;2023-03-19T11:45:24;39.53;;;18.37;;
69625;SDS011;56847;51.984;5.088;2023-03-19T11:51:10;38.80;;;17.15;;
69625;SDS011;56847;51.984;5.088;2023-03-19T11:56:22;39.45;;;17.98;;
69625;SDS011;56847;51.984;5.088;2023-03-19T12:02:15;40.90;;;18.75;;
69625;SDS011;56847;51.984;5.088;2023-03-19T12:07:41;42.08;;;18.45;;
69625;SDS011;56847;51.984;5.088;2023-03-19T12:24:47;35.50;;;17.08;;
69625;SDS011;56847;51.984;5.088;2023-03-19T12:30:17;37.67;;;19.65;;
69625;SDS011;56847;51.984;5.088;2023-03-19T12:33:02;45.10;;;21.00;;
69625;SDS011;56847;51.984;5.088;2023-03-19T12:35:51;34.42;;;18.40;;
69625;SDS011;56847;51.984;5.088;2023-03-19T12:41:13;33.37;;;14.90;;
69625;SDS011;56847;51.984;5.088;2023-03-19T12:46:33;32.72;;;17.30;;
69625;SDS011;56847;51.984;5.088;2023-03-19T12:49:07;29.60;;;15.70;;
69625;SDS011;56847;51.984;5.088;2023-03-19T12:51:45;32.50;;;17.95;;
69625;SDS011;56847;51.984;5.088;2023-03-19T12:54:18;32.93;;;18.07;;
69625;SDS011;56847;51.984;5.088;2023-03-19T13:02:45;28.85;;;16.90;;
69625;SDS011;56847;51.984;5.088;2023-03-19T13:08:21;33.90;;;17.20;;
69625;SDS011;56847;51.984;5.088;2023-03-19T13:10:52;33.83;;;17.95;;
69625;SDS011;56847;51.984;5.088;2023-03-19T13:13:23;36.83;;;18.75;;
69625;SDS011;56847;51.984;5.088;2023-03-19T13:16:07;38.58;;;20.15;;
69625;SDS011;56847;51.984;5.088;2023-03-19T13:21:35;32.03;;;17.60;;
69625;SDS011;56847;51.984;5.088;2023-03-19T13:26:53;31.00;;;17.10;;
69625;SDS011;56847;51.984;5.088;2023-03-19T13:29:24;33.17;;;19.25;;
69625;SDS011;56847;51.984;5.088;2023-03-19T13:32:00;36.42;;;20.65;;
69625;SDS011;56847;51.984;5.088;2023-03-19T13:34:31;32.23;;;17.03;;
69625;SDS011;56847;51.984;5.088;2023-03-19T13:39:36;34.20;;;18.70;;
69625;SDS011;56847;51.984;5.088;2023-03-19T13:44:41;28.05;;;16.60;;
69625;SDS011;56847;51.984;5.088;2023-03-19T13:55:27;28.85;;;15.48;;
69625;SDS011;56847;51.984;5.088;2023-03-19T14:01:03;33.73;;;17.43;;
69625;SDS011;56847;51.984;5.088;2023-03-19T14:03:32;29.17;;;18.48;;
69625;SDS011;56847;51.984;5.088;2023-03-19T14:06:02;35.28;;;19.60;;
69625;SDS011;56847;51.984;5.088;2023-03-19T14:08:41;29.27;;;18.38;;
69625;SDS011;56847;51.984;5.088;2023-03-19T14:11:20;31.35;;;16.90;;
69625;SDS011;56847;51.984;5.088;2023-03-19T14:13:54;32.93;;;19.20;;
69625;SDS011;56847;51.984;5.088;2023-03-19T14:16:23;29.48;;;18.38;;
69625;SDS011;56847;51.984;5.088;2023-03-19T14:18:56;27.42;;;18.50;;
69625;SDS011;56847;51.984;5.088;2023-03-19T14:21:33;21.42;;;14.50;;
69625;SDS011;56847;51.984;5.088;2023-03-19T14:27:26;23.70;;;12.90;;
69625;SDS011;56847;51.984;5.088;2023-03-19T14:29:56;21.77;;;11.88;;
69625;SDS011;56847;51.984;5.088;2023-03-19T14:32:30;21.60;;;12.07;;
69625;SDS011;56847;51.984;5.088;2023-03-19T14:35:03;25.98;;;15.05;;
69625;SDS011;56847;51.984;5.088;2023-03-19T14:37:41;25.95;;;15.93;;
69625;SDS011;56847;51.984;5.088;2023-03-19T14:54:42;22.03;;;13.53;;
69625;SDS011;56847;51.984;5.088;2023-03-19T14:57:24;25.00;;;15.50;;
69625;SDS011;56847;51.984;5.088;2023-03-19T14:59:53;28.85;;;15.65;;
69625;SDS011;56847;51.984;5.088;2023-03-19T15:05:31;20.88;;;14.65;;
69625;SDS011;56847;51.984;5.088;2023-03-19T15:08:02;21.47;;;12.57;;
69625;SDS011;56847;51.984;5.088;2023-03-19T15:10:43;21.92;;;14.35;;
69625;SDS011;56847;51.984;5.088;2023-03-19T15:13:38;16.58;;;11.20;;
69625;SDS011;56847;51.984;5.088;2023-03-19T15:19:21;23.45;;;13.48;;
69625;SDS011;56847;51.984;5.088;2023-03-19T15:22:02;18.10;;;13.00;;
69625;SDS011;56847;51.984;5.088;2023-03-19T15:24:38;18.77;;;11.65;;
69625;SDS011;56847;51.984;5.088;2023-03-19T15:27:15;19.50;;;12.38;;
69625;SDS011;56847;51.984;5.088;2023-03-19T15:29:45;17.98;;;13.15;;
69625;SDS011;56847;51.984;5.088;2023-03-19T15:32:29;14.15;;;10.65;;
69625;SDS011;56847;51.984;5.088;2023-03-19T15:35:33;18.87;;;12.73;;
69625;SDS011;56847;51.984;5.088;2023-03-19T15:38:05;21.48;;;13.63;;
69625;SDS011;56847;51.984;5.088;2023-03-19T15:40:39;18.67;;;10.90;;
69625;SDS011;56847;51.984;5.088;2023-03-19T15:43:07;14.52;;;11.02;;
69625;SDS011;56847;51.984;5.088;2023-03-19T15:45:38;18.90;;;12.00;;
69625;SDS011;56847;51.984;5.088;2023-03-19T15:48:14;16.87;;;10.33;;
69625;SDS011;56847;51.984;5.088;2023-03-19T15:51:02;19.20;;;10.43;;
69625;SDS011;56847;51.984;5.088;2023-03-19T15:53:31;23.90;;;13.07;;
69625;SDS011;56847;51.984;5.088;2023-03-19T15:56:00;23.45;;;13.25;;
69625;SDS011;56847;51.984;5.088;2023-03-19T15:58:30;22.98;;;13.38;;
69625;SDS011;56847;51.984;5.088;2023-03-19T16:01:02;42.90;;;18.67;;
69625;SDS011;56847;51.984;5.088;2023-03-19T16:03:35;48.05;;;20.33;;
69625;SDS011;56847;51.984;5.088;2023-03-19T16:06:05;44.45;;;20.48;;
69625;SDS011;56847;51.984;5.088;2023-03-19T16:08:53;39.80;;;18.63;;
69625;SDS011;56847;51.984;5.088;2023-03-19T16:11:26;49.65;;;21.60;;
69625;SDS011;56847;51.984;5.088;2023-03-19T16:13:57;43.13;;;21.47;;
69625;SDS011;56847;51.984;5.088;2023-03-19T16:16:29;52.60;;;22.13;;
69625;SDS011;56847;51.984;5.088;2023-03-19T16:18:58;51.88;;;22.08;;
69625;SDS011;56847;51.984;5.088;2023-03-19T16:21:36;53.05;;;22.77;;
69625;SDS011;56847;51.984;5.088;2023-03-19T16:26:44;50.30;;;20.50;;
69625;SDS011;56847;51.984;5.088;2023-03-19T16:29:23;44.97;;;21.05;;
69625;SDS011;56847;51.984;5.088;2023-03-19T16:31:52;46.35;;;21.50;;
69625;SDS011;56847;51.984;5.088;2023-03-19T16:39:54;39.87;;;19.73;;
69625;SDS011;56847;51.984;5.088;2023-03-19T16:47:50;42.25;;;21.40;;
69625;SDS011;56847;51.984;5.088;2023-03-19T16:50:26;41.92;;;24.60;;
69625;SDS011;56847;51.984;5.088;2023-03-19T16:52:59;39.43;;;20.90;;
69625;SDS011;56847;51.984;5.088;2023-03-19T16:55:33;36.95;;;19.70;;
69625;SDS011;56847;51.984;5.088;2023-03-19T16:58:14;42.50;;;22.35;;
69625;SDS011;56847;51.984;5.088;2023-03-19T17:01:02;36.22;;;21.45;;
69625;SDS011;56847;51.984;5.088;2023-03-19T17:03:49;37.10;;;22.38;;
69625;SDS011;56847;51.984;5.088;2023-03-19T17:06:17;42.77;;;21.40;;
69625;SDS011;56847;51.984;5.088;2023-03-19T17:08:44;33.67;;;19.20;;
69625;SDS011;56847;51.984;5.088;2023-03-19T17:11:15;35.42;;;20.20;;
69625;SDS011;56847;51.984;5.088;2023-03-19T17:14:01;43.47;;;25.77;;